createdAt,value
2023-05-21T04:04:11.917Z,100.00
2023-05-21T04:08:23.904Z,100.00
2023-05-21T04:12:35.888Z,100.00
2023-05-21T04:16:49.898Z,100.00
2023-05-21T04:21:02.389Z,100.00
2023-05-21T04:25:13.997Z,100.00
2023-05-21T04:29:27.209Z,100.00
2023-05-21T04:33:42.013Z,100.00
2023-05-21T04:37:54.933Z,100.00
2023-05-21T04:42:06.837Z,100.00
2023-05-21T04:46:18.486Z,100.00
2023-05-21T04:50:33.661Z,100.00
2023-05-21T04:54:45.797Z,100.00
2023-05-21T04:58:58.827Z,100.00
2023-05-21T05:03:11.322Z,100.00
2023-05-21T05:07:22.928Z,100.00
2023-05-21T05:11:34.596Z,100.00
2023-05-21T05:15:48.753Z,100.00
2023-05-21T05:20:01.574Z,100.00
2023-05-21T05:24:14.174Z,100.00
2023-05-21T05:28:26.112Z,100.00
2023-05-21T05:32:37.806Z,100.00
2023-05-21T05:36:49.533Z,100.00
2023-05-21T05:41:01.217Z,100.00
2023-05-21T05:45:13.902Z,100.00
2023-05-21T05:49:25.766Z,100.00
2023-05-21T05:53:37.789Z,99.76
2023-05-21T05:57:49.869Z,98.73
2023-05-21T06:02:03.398Z,97.18
2023-05-21T06:06:15.173Z,94.67
2023-05-21T06:10:26.885Z,92.88
2023-05-21T06:14:38.561Z,93.19
2023-05-21T06:18:50.285Z,92.43
2023-05-21T06:23:01.861Z,92.87
2023-05-21T06:27:13.491Z,92.96
2023-05-21T06:31:25.414Z,93.03
2023-05-21T06:35:39.180Z,93.40
2023-05-21T06:39:52.855Z,94.42
2023-05-21T06:44:05.353Z,94.38
2023-05-21T06:48:29.273Z,94.99
2023-05-21T06:52:41.192Z,94.03
2023-05-21T06:56:52.874Z,94.81
2023-05-21T07:01:04.564Z,94.44
2023-05-21T07:05:16.377Z,95.58
2023-05-21T07:09:27.938Z,95.12
2023-05-21T07:13:39.576Z,93.02
2023-05-21T07:17:51.446Z,92.76
2023-05-21T07:22:04.970Z,91.21
2023-05-21T07:26:17.796Z,88.96
2023-05-21T07:30:30.119Z,86.49
2023-05-21T07:34:42.635Z,84.23
2023-05-21T07:38:54.898Z,83.18
2023-05-21T07:43:07.193Z,82.55
2023-05-21T07:47:20.677Z,81.33
2023-05-21T07:51:32.320Z,81.40
2023-05-21T07:55:47.810Z,80.75
2023-05-21T08:00:01.896Z,79.63
2023-05-21T08:04:16.518Z,79.43
2023-05-21T08:08:28.192Z,79.99
2023-05-21T08:12:41.499Z,79.10
2023-05-21T08:16:53.598Z,78.81
2023-05-21T08:21:05.343Z,79.40
2023-05-21T08:25:17.136Z,77.06
2023-05-21T08:29:28.888Z,78.62
2023-05-21T08:33:50.364Z,79.11
2023-05-21T08:38:02.749Z,79.43
2023-05-21T08:42:37.576Z,79.67
2023-05-21T08:46:53.756Z,78.58
2023-05-21T08:51:05.793Z,78.88
2023-05-21T08:55:23.421Z,78.52
2023-05-21T08:59:36.907Z,78.91
2023-05-21T09:04:04.806Z,78.86
2023-05-21T09:08:29.568Z,79.05
2023-05-21T09:12:48.875Z,77.86
2023-05-21T09:17:01.330Z,77.92
2023-05-21T09:21:24.487Z,78.61
2023-05-21T09:25:39.126Z,79.14
2023-05-21T09:29:55.829Z,78.57
2023-05-21T09:34:07.563Z,77.43
2023-05-21T09:38:22.741Z,76.45
2023-05-21T09:42:34.621Z,75.21
2023-05-21T09:46:46.381Z,74.97
2023-05-21T09:51:11.473Z,74.03
2023-05-21T09:55:24.088Z,73.34
2023-05-21T09:59:37.224Z,72.56
2023-05-21T10:03:57.383Z,71.78
2023-05-21T10:08:10.152Z,69.65
2023-05-21T10:12:24.393Z,70.35
2023-05-21T10:16:37.693Z,71.55
2023-05-21T10:20:49.744Z,68.93
2023-05-21T10:25:03.641Z,69.38
2023-05-21T10:29:17.363Z,69.35
2023-05-21T10:33:31.782Z,66.20
2023-05-21T10:37:44.395Z,65.81
2023-05-21T10:42:31.123Z,63.95
2023-05-21T10:47:00.524Z,62.77
2023-05-21T10:51:21.116Z,61.55
2023-05-21T10:55:38.620Z,62.19
2023-05-21T10:59:50.738Z,60.66
2023-05-21T11:04:03.517Z,59.27
2023-05-21T11:08:22.577Z,59.69
2023-05-21T11:12:34.895Z,59.16
2023-05-21T11:16:46.799Z,59.48
2023-05-21T11:21:11.360Z,60.02
2023-05-21T11:25:22.957Z,60.18
2023-05-21T11:29:40.654Z,61.05
2023-05-21T11:34:14.309Z,61.45
2023-05-21T11:38:31.588Z,60.42
2023-05-21T11:42:48.423Z,60.17
2023-05-21T11:47:00.375Z,60.29
2023-05-21T11:51:11.990Z,62.72
2023-05-21T11:55:25.024Z,60.89
2023-05-21T11:59:36.988Z,61.63
2023-05-21T12:03:48.673Z,61.33
2023-05-21T12:08:00.330Z,60.59
2023-05-21T12:12:15.187Z,61.06
2023-05-21T12:16:26.979Z,60.15
2023-05-21T12:20:38.894Z,60.92
2023-05-21T12:24:51.188Z,61.93
2023-05-21T12:29:04.769Z,62.16
2023-05-21T12:33:17.984Z,60.93
2023-05-21T12:37:35.601Z,60.24
2023-05-21T12:41:47.223Z,61.07
2023-05-21T12:45:58.820Z,59.91
2023-05-21T12:50:13.998Z,60.40
2023-05-21T12:54:31.649Z,60.78
2023-05-21T12:58:43.281Z,60.15
2023-05-21T13:02:57.020Z,59.02
2023-05-21T13:07:08.726Z,57.11
2023-05-21T13:11:21.356Z,56.34
2023-05-21T13:15:32.955Z,58.26
2023-05-21T13:20:06.430Z,59.26
2023-05-21T13:24:18.026Z,59.64
2023-05-21T13:28:29.645Z,58.05
2023-05-21T13:32:42.378Z,57.82
2023-05-21T13:36:54.015Z,58.13
2023-05-21T13:41:05.961Z,57.87
2023-05-21T13:45:19.163Z,57.91
2023-05-21T13:49:31.294Z,56.72
2023-05-21T13:53:42.918Z,57.38
2023-05-21T13:57:54.464Z,55.95
2023-05-21T14:02:06.121Z,55.31
2023-05-21T14:06:17.715Z,54.62
2023-05-21T14:10:29.257Z,54.98
2023-05-21T14:14:41.393Z,55.09
2023-05-21T14:18:56.385Z,55.29
2023-05-21T14:23:09.338Z,55.07
2023-05-21T14:27:20.912Z,53.66
2023-05-21T14:31:32.469Z,53.03
2023-05-21T14:35:44.344Z,51.73
2023-05-21T14:39:56.005Z,52.77
2023-05-21T14:44:08.196Z,51.73
2023-05-21T14:48:23.092Z,51.87
2023-05-21T14:52:34.634Z,52.19
2023-05-21T14:56:46.181Z,52.09
2023-05-21T15:00:57.781Z,51.33
2023-05-21T15:05:09.480Z,51.45
2023-05-21T15:09:21.176Z,49.84
2023-05-21T15:13:32.888Z,50.35
2023-05-21T15:17:44.602Z,49.38
2023-05-21T15:21:56.188Z,49.91
2023-05-21T15:26:09.063Z,48.78
2023-05-21T15:30:22.329Z,49.68
2023-05-21T15:34:34.340Z,51.28
2023-05-21T15:38:46.222Z,50.65
2023-05-21T15:42:57.826Z,50.00
2023-05-21T15:47:09.426Z,48.39
2023-05-21T15:51:21.049Z,49.02
2023-05-21T15:55:33.432Z,49.15
2023-05-21T15:59:45.038Z,49.24
2023-05-21T16:03:56.731Z,49.05
2023-05-21T16:08:10.713Z,48.99
2023-05-21T16:12:22.302Z,49.28
2023-05-21T16:16:34.109Z,49.55
2023-05-21T16:20:45.701Z,49.23
2023-05-21T16:24:57.329Z,49.02
2023-05-21T16:29:08.968Z,48.92
2023-05-21T16:33:20.576Z,49.02
2023-05-21T16:37:32.247Z,48.34
2023-05-21T16:41:43.907Z,49.66
2023-05-21T16:45:55.553Z,50.33
2023-05-21T16:50:07.980Z,49.56
2023-05-21T16:54:19.540Z,49.65
2023-05-21T16:58:33.207Z,50.74
2023-05-21T17:02:44.923Z,51.00
2023-05-21T17:06:56.903Z,52.47
2023-05-21T17:11:08.812Z,53.17
2023-05-21T17:15:20.627Z,53.26
2023-05-21T17:19:32.332Z,53.53
2023-05-21T17:23:43.951Z,53.53
2023-05-21T17:27:55.652Z,53.27
2023-05-21T17:32:07.234Z,54.24
2023-05-21T17:36:18.805Z,53.58
2023-05-21T17:40:30.403Z,54.71
2023-05-21T17:44:42.005Z,54.34
2023-05-21T17:48:53.590Z,53.77
2023-05-21T17:53:05.320Z,54.41
2023-05-21T17:57:19.563Z,55.63
2023-05-21T18:01:31.347Z,55.86
2023-05-21T18:05:42.994Z,56.18
2023-05-21T18:09:54.523Z,57.14
2023-05-21T18:14:06.127Z,58.43
2023-05-21T18:18:20.685Z,58.69
2023-05-21T18:22:33.081Z,58.83
2023-05-21T18:26:45.672Z,60.47
2023-05-21T18:31:00.724Z,61.13
2023-05-21T18:35:13.768Z,61.96
2023-05-21T18:39:27.722Z,63.70
2023-05-21T18:43:41.373Z,63.48
2023-05-21T18:47:52.913Z,64.77
2023-05-21T18:52:07.815Z,65.90
2023-05-21T18:56:19.438Z,67.10
2023-05-21T19:00:31.033Z,67.38
2023-05-21T19:04:42.645Z,69.89
2023-05-21T19:08:54.461Z,69.61
2023-05-21T19:13:06.543Z,70.33
2023-05-21T19:17:18.152Z,71.88
2023-05-21T19:21:29.716Z,72.29
2023-05-21T19:25:41.525Z,73.54
2023-05-21T19:29:53.066Z,74.46
2023-05-21T19:34:10.258Z,75.94
2023-05-21T19:38:22.154Z,77.37
2023-05-21T19:42:33.684Z,78.60
2023-05-21T19:46:45.277Z,79.70
2023-05-21T19:50:57.055Z,81.05
2023-05-21T19:55:10.146Z,81.84
2023-05-21T19:59:21.934Z,82.66
2023-05-21T20:03:36.981Z,83.45
2023-05-21T20:07:48.545Z,84.43
2023-05-21T20:12:00.162Z,84.71
2023-05-21T20:16:12.529Z,84.73
2023-05-21T20:20:26.667Z,85.47
2023-05-21T20:24:38.261Z,86.46
2023-05-21T20:28:49.801Z,86.91
2023-05-21T20:33:02.810Z,87.90
2023-05-21T20:37:14.822Z,88.50
2023-05-21T20:41:28.170Z,89.06
2023-05-21T20:45:41.014Z,89.87
2023-05-21T20:49:53.622Z,89.27
2023-05-21T20:54:05.349Z,90.61
2023-05-21T20:58:16.904Z,90.76
2023-05-21T21:02:28.622Z,91.00
2023-05-21T21:06:40.780Z,91.65
2023-05-21T21:10:52.332Z,92.56
2023-05-21T21:15:04.193Z,93.00
2023-05-21T21:19:15.797Z,93.34
2023-05-21T21:23:30.456Z,94.06
2023-05-21T21:27:42.506Z,94.67
